Date,TemperatureHighF,TemperatureAvgF,TemperatureLowF,DewpointHighF,DewpointAvgF,DewpointLowF,HumidityHigh,HumidityAvg,HumidityLow,PressureMaxIn,PressureMinIn,WindSpeedMaxMPH,WindSpeedAvgMPH,GustSpeedMaxMPH,PrecipitationSumIn
2013-1-1,42,40,33,-100,-100,-100,0,0,100,0.00,40.00,0,-999,0,0.00
2013-1-2,34,29,24,-100,-100,-100,0,0,100,0.00,40.00,0,-999,0,0.00
2013-1-3,35,28,21,-100,-100,-100,0,0,100,0.00,40.00,0,-999,0,0.00
2013-1-4,38,33,28,-100,-100,-100,0,0,100,0.00,40.00,0,-999,0,0.00
2013-1-5,41,33,28,-100,-100,-100,0,0,100,0.00,40.00,0,-999,0,0.00
2013-1-6,48,37,30,-100,-100,-100,0,0,100,0.00,40.00,0,-999,0,0.00
2013-1-7,47,37,27,-100,-100,-100,0,0,100,0.00,40.00,0,-999,0,0.00
2013-1-8,53,36,23,-100,-100,-100,0,0,100,0.00,40.00,0,-999,0,0.00
2013-1-9,55,45,31,-100,-100,-100,0,0,100,0.00,40.00,0,-999,0,0.00
2013-1-10,49,41,33,-100,-100,-100,0,0,100,0.00,40.00,0,-999,0,0.00
2013-1-11,50,42,32,-100,-100,-100,0,0,100,0.00,40.00,0,-999,0,0.00
2013-1-12,50,47,45,-100,-100,-100,0,0,100,0.00,40.00,0,-999,0,0.00
2013-1-13,51,46,41,-100,-100,-100,0,0,100,0.00,40.00,0,-999,0,0.00
2013-1-14,58,52,44,-100,-100,-100,0,0,100,0.00,40.00,0,-999,0,0.00
2013-1-15,41,38,36,-100,-100,-100,0,0,100,0.00,40.00,0,-999,0,0.00
2013-1-16,43,39,36,-100,-100,-100,0,0,100,0.00,40.00,0,-999,0,0.00
2013-1-17,42,40,36,-100,-100,-100,0,0,100,0.00,40.00,0,-999,0,0.00
2013-1-18,36,31,24,-100,-100,-100,0,0,100,0.00,40.00,0,-999,0,0.00
2013-1-19,52,38,25,-100,-100,-100,0,0,100,0.00,40.00,0,-999,0,0.00
2013-1-20,56,47,34,-100,-100,-100,0,0,100,0.00,40.00,0,-999,0,0.00
2013-1-21,35,32,28,-100,-100,-100,0,0,100,0.00,40.00,0,-999,0,0.00
2013-1-22,27,20,15,-100,-100,-100,0,0,100,0.00,40.00,0,-999,0,0.00
2013-1-23,20,14,6,-100,-100,-100,0,0,100,0.00,40.00,0,-999,0,0.00
2013-1-24,25,16,6,-100,-100,-100,0,0,100,0.00,40.00,0,-999,0,0.00
2013-1-25,24,17,12,-100,-100,-100,0,0,100,0.00,40.00,0,-999,0,0.00
2013-1-26,27,18,6,-100,-100,-100,0,0,100,0.00,40.00,0,-999,0,0.00
2013-1-27,34,19,9,-100,-100,-100,0,0,100,0.00,40.00,0,-999,0,0.00
2013-1-28,37,29,16,-100,-100,-100,0,0,100,0.00,40.00,0,-999,0,0.00
2013-1-29,52,42,33,-100,-100,-100,0,0,100,0.00,40.00,0,-999,0,0.00
2013-1-30,57,51,43,-100,-100,-100,0,0,100,0.00,40.00,0,-999,0,0.00
2013-1-31,48,41,31,-100,-100,-100,0,0,100,0.00,40.00,0,-999,0,0.00
2013-2-1,31,28,22,-100,-100,-100,0,0,100,0.00,40.00,0,-999,0,0.00
2013-2-2,30,23,14,-100,-100,-100,0,0,100,0.00,40.00,0,-999,0,0.00
2013-2-3,34,27,22,-100,-100,-100,0,0,100,0.00,40.00,0,-999,0,0.00
2013-2-4,30,27,22,-100,-100,-100,0,0,100,0.00,40.00,0,-999,0,0.00
2013-2-5,38,33,28,-100,-100,-100,0,0,100,0.00,40.00,0,-999,0,0.00
2013-2-6,39,33,26,-100,-100,-100,0,0,100,0.00,40.00,0,-999,0,0.00
2013-2-7,40,30,19,-100,-100,-100,0,0,100,0.00,40.00,0,-999,0,0.00
2013-2-8,44,40,32,-100,-100,-100,0,0,100,0.00,40.00,0,-999,0,0.00
2013-2-9,33,29,24,-100,-100,-100,0,0,100,0.00,40.00,0,-999,0,0.00
2013-2-10,38,26,15,-100,-100,-100,0,0,100,0.00,40.00,0,-999,0,0.00
2013-2-11,50,46,35,-100,-100,-100,0,0,100,0.00,40.00,0,-999,0,0.00
2013-2-12,50,42,30,-100,-100,-100,0,0,100,0.00,40.00,0,-999,0,0.00
2013-2-13,43,34,24,-100,-100,-100,0,0,100,0.00,40.00,0,-999,0,0.00
2013-2-14,44,36,32,-100,-100,-100,0,0,100,0.00,40.00,0,-999,0,0.00
2013-2-15,53,40,29,-100,-100,-100,0,0,100,0.00,40.00,0,-999,0,0.00
2013-2-16,41,37,31,-100,-100,-100,0,0,100,0.00,40.00,0,-999,0,0.00
2013-2-17,31,29,24,-100,-100,-100,0,0,100,0.00,40.00,0,-999,0,0.00
2013-2-18,37,27,20,-100,-100,-100,0,0,100,0.00,40.00,0,-999,0,0.00
2013-2-19,48,41,29,-100,-100,-100,0,0,100,0.00,40.00,0,-999,0,0.00
2013-2-20,39,32,26,-100,-100,-100,0,0,100,0.00,40.00,0,-999,0,0.00
2013-2-21,36,31,23,-100,-100,-100,0,0,100,0.00,40.00,0,-999,0,0.00
2013-2-22,38,32,23,-100,-100,-100,0,0,100,0.00,40.00,0,-999,0,0.00
2013-2-23,47,42,35,-100,-100,-100,0,0,100,0.00,40.00,0,-999,0,0.00
2013-2-24,47,40,33,-100,-100,-100,0,0,100,0.00,40.00,0,-999,0,0.00
2013-2-25,43,35,27,-100,-100,-100,0,0,100,0.00,40.00,0,-999,0,0.00
2013-2-26,44,36,26,-100,-100,-100,0,0,100,0.00,40.00,0,-999,0,0.00
2013-2-27,54,49,44,-100,-100,-100,0,0,100,0.00,40.00,0,-999,0,0.00
2013-2-28,45,42,38,-100,-100,-100,0,0,100,0.00,40.00,0,-999,0,0.00
2013-3-1,44,40,32,-100,-100,-100,0,0,100,0.00,40.00,0,-999,0,0.00
2013-3-2,40,37,33,-100,-100,-100,0,0,100,0.00,40.00,0,-999,0,0.00
2013-3-3,38,32,27,-100,-100,-100,0,0,100,0.00,40.00,0,-999,0,0.00
2013-3-4,41,34,28,-100,-100,-100,0,0,100,0.00,40.00,0,-999,0,0.00
2013-3-5,46,36,29,-100,-100,-100,0,0,100,0.00,40.00,0,-999,0,0.00
2013-3-6,42,39,36,-100,-100,-100,0,0,100,0.00,40.00,0,-999,0,0.00
2013-3-7,42,37,33,-100,-100,-100,0,0,100,0.00,40.00,0,-999,0,0.00
2013-3-8,40,34,32,-100,-100,-100,0,0,100,0.00,40.00,0,-999,0,0.00
2013-3-9,58,42,31,-100,-100,-100,0,0,100,0.00,40.00,0,-999,0,0.00
2013-3-10,45,36,25,-100,-100,-100,0,0,100,0.00,40.00,0,-999,0,0.00
2013-3-11,53,43,31,-100,-100,-100,0,0,100,0.00,40.00,0,-999,0,0.00
2013-3-12,53,51,45,-100,-100,-100,0,0,100,0.00,40.00,0,-999,0,0.00
2013-3-13,49,42,34,-100,-100,-100,0,0,100,0.00,40.00,0,-999,0,0.00
2013-3-14,41,35,30,-100,-100,-100,0,0,100,0.00,40.00,0,-999,0,0.00
2013-3-15,50,38,28,-100,-100,-100,0,0,100,0.00,40.00,0,-999,0,0.00
2013-3-16,42,38,34,-100,-100,-100,0,0,100,0.00,40.00,0,-999,0,0.00
2013-3-17,38,35,30,-100,-100,-100,0,0,100,0.00,40.00,0,-999,0,0.00
2013-3-18,42,37,31,-100,-100,-100,0,0,100,0.00,40.00,0,-999,0,0.00
2013-3-19,50,43,40,-100,-100,-100,0,0,100,0.00,40.00,0,-999,0,0.00
2013-3-20,48,40,30,-100,-100,-100,0,0,100,0.00,40.00,0,-999,0,0.00
2013-3-21,42,34,30,-100,-100,-100,0,0,100,0.00,40.00,0,-999,0,0.00
2013-3-22,41,33,25,-100,-100,-100,0,0,100,0.00,40.00,0,-999,0,0.00
2013-3-23,47,37,27,-100,-100,-100,0,0,100,0.00,40.00,0,-999,0,0.00
2013-3-24,44,36,27,-100,-100,-100,0,0,100,0.00,40.00,0,-999,0,0.00
2013-3-25,40,36,33,-100,-100,-100,0,0,100,0.00,40.00,0,-999,0,0.00
2013-3-26,49,41,34,-100,-100,-100,0,0,100,0.00,40.00,0,-999,0,0.00
2013-3-27,50,41,32,-100,-100,-100,0,0,100,0.00,40.00,0,-999,0,0.00
2013-3-28,48,42,31,-100,-100,-100,0,0,100,0.00,40.00,0,-999,0,0.00
2013-3-29,53,44,34,-100,-100,-100,0,0,100,0.00,40.00,0,-999,0,0.00
2013-3-30,56,45,31,-100,-100,-100,0,0,100,0.00,40.00,0,-999,0,0.00
2013-3-31,54,45,31,-100,-100,-100,0,0,100,0.00,40.00,0,-999,0,0.00
2013-4-1,63,52,41,-100,-100,-100,0,0,100,0.00,40.00,0,-999,0,0.00
2013-4-2,44,38,29,-100,-100,-100,0,0,100,0.00,40.00,0,-999,0,0.00
2013-4-3,46,38,29,-100,-100,-100,0,0,100,0.00,40.00,0,-999,0,0.00
2013-4-4,46,38,25,-100,-100,-100,0,0,100,0.00,40.00,0,-999,0,0.00
2013-4-5,61,47,38,-100,-100,-100,0,0,100,0.00,40.00,0,-999,0,0.00
2013-4-6,47,40,33,-100,-100,-100,0,0,100,0.00,40.00,0,-999,0,0.00
2013-4-7,55,45,30,-100,-100,-100,0,0,100,0.00,40.00,0,-999,0,0.00
2013-4-8,59,53,48,-100,-100,-100,0,0,100,0.00,40.00,0,-999,0,0.00
2013-4-9,83,68,54,-100,-100,-100,0,0,100,0.00,40.00,0,-999,0,0.00
2013-4-10,77,66,58,-100,-100,-100,0,0,100,0.00,40.00,0,-999,0,0.00
2013-4-11,69,55,47,-100,-100,-100,0,0,100,0.00,40.00,0,-999,0,0.00
2013-4-12,56,48,44,-100,-100,-100,0,0,100,0.00,40.00,0,-999,0,0.00
2013-4-13,60,50,41,-100,-100,-100,0,0,100,0.00,40.00,0,-999,0,0.00
2013-4-14,61,51,39,-100,-100,-100,0,0,100,0.00,40.00,0,-999,0,0.00
2013-4-15,53,50,47,-100,-100,-100,0,0,100,0.00,40.00,0,-999,0,0.00
2013-4-16,64,56,48,-100,-100,-100,0,0,100,0.00,40.00,0,-999,0,0.00
2013-4-17,65,59,49,-100,-100,-100,0,0,100,0.00,40.00,0,-999,0,0.00
2013-4-18,60,54,44,-100,-100,-100,0,0,100,0.00,40.00,0,-999,0,0.00
2013-4-19,67,61,55,-100,-100,-100,0,0,100,0.00,40.00,0,-999,0,0.00
2013-4-20,62,53,47,-100,-100,-100,0,0,100,0.00,40.00,0,-999,0,0.00
2013-4-21,50,43,36,-100,-100,-100,0,0,100,0.00,40.00,0,-999,0,0.00
2013-4-22,48,43,32,-100,-100,-100,0,0,100,0.00,40.00,0,-999,0,0.00
2013-4-23,49,45,43,-100,-100,-100,0,0,100,0.00,40.00,0,-999,0,0.00
2013-4-24,62,51,37,-100,-100,-100,0,0,100,0.00,40.00,0,-999,0,0.00
2013-4-25,61,53,43,-100,-100,-100,0,0,100,0.00,40.00,0,-999,0,0.00
2013-4-26,63,50,37,-100,-100,-100,0,0,100,0.00,40.00,0,-999,0,0.00
2013-4-27,63,52,39,-100,-100,-100,0,0,100,0.00,40.00,0,-999,0,0.00
2013-4-28,64,53,37,-100,-100,-100,0,0,100,0.00,40.00,0,-999,0,0.00
2013-4-29,56,54,52,-100,-100,-100,0,0,100,0.00,40.00,0,-999,0,0.00
2013-4-30,63,56,50,-100,-100,-100,0,0,100,0.00,40.00,0,-999,0,0.00
2013-5-1,59,51,40,-100,-100,-100,0,0,100,0.00,40.00,0,-999,0,0.00
2013-5-2,63,52,39,-100,-100,-100,0,0,100,0.00,40.00,0,-999,0,0.00
2013-5-3,56,50,44,-100,-100,-100,0,0,100,0.00,40.00,0,-999,0,0.00
2013-5-4,60,51,43,-100,-100,-100,0,0,100,0.00,40.00,0,-999,0,0.00
2013-5-5,54,49,46,-100,-100,-100,0,0,100,0.00,40.00,0,-999,0,0.00
2013-5-6,57,52,46,-100,-100,-100,0,0,100,0.00,40.00,0,-999,0,0.00
2013-5-7,59,55,50,-100,-100,-100,0,0,100,0.00,40.00,0,-999,0,0.00
2013-5-8,71,61,56,-100,-100,-100,0,0,100,0.00,40.00,0,-999,0,0.00
2013-5-9,70,62,56,-100,-100,-100,0,0,100,0.00,40.00,0,-999,0,0.00
2013-5-10,78,66,54,-100,-100,-100,0,0,100,0.00,40.00,0,-999,0,0.00
2013-5-11,71,64,60,-100,-100,-100,0,0,100,0.00,40.00,0,-999,0,0.00
2013-5-12,67,61,51,-100,-100,-100,0,0,100,0.00,40.00,0,-999,0,0.00
2013-5-13,56,49,38,-100,-100,-100,0,0,100,0.00,40.00,0,-999,0,0.00
2013-5-14,60,48,35,-100,-100,-100,0,0,100,0.00,40.00,0,-999,0,0.00
2013-5-15,70,58,49,-100,-100,-100,0,0,100,0.00,40.00,0,-999,0,0.00
2013-5-16,77,66,57,-100,-100,-100,0,0,100,0.00,40.00,0,-999,0,0.00
2013-5-17,73,64,52,-100,-100,-100,0,0,100,0.00,40.00,0,-999,0,0.00
2013-5-18,64,58,53,-100,-100,-100,0,0,100,0.00,40.00,0,-999,0,0.00
2013-5-19,60,58,56,-100,-100,-100,0,0,100,0.00,40.00,0,-999,0,0.00
2013-5-20,77,68,61,-100,-100,-100,0,0,100,0.00,40.00,0,-999,0,0.00
2013-5-21,82,74,64,-100,-100,-100,0,0,100,0.00,40.00,0,-999,0,0.00
2013-5-22,82,72,66,-100,-100,-100,0,0,100,0.00,40.00,0,-999,0,0.00
2013-5-23,76,69,64,-100,-100,-100,0,0,100,0.00,40.00,0,-999,0,0.00
2013-5-24,67,58,46,-100,-100,-100,0,0,100,0.00,40.00,0,-999,0,0.00
2013-5-25,59,52,45,-100,-100,-100,0,0,100,0.00,40.00,0,-999,0,0.00
2013-5-26,68,56,46,-100,-100,-100,0,0,100,0.00,40.00,0,-999,0,0.00
2013-5-27,72,59,39,-100,-100,-100,0,0,100,0.00,40.00,0,-999,0,0.00
2013-5-28,66,59,50,-100,-100,-100,0,0,100,0.00,40.00,0,-999,0,0.00
2013-5-29,86,73,60,-100,-100,-100,0,0,100,0.00,40.00,0,-999,0,0.00
2013-5-30,78,71,68,-100,-100,-100,0,0,100,0.00,40.00,0,-999,0,0.00
2013-5-31,88,82,71,-100,-100,-100,0,0,100,0.00,40.00,0,-999,0,0.00
2013-6-1,85,76,67,-100,-100,-100,0,0,100,0.00,40.00,0,-999,0,0.00
2013-6-2,82,73,67,-100,-100,-100,0,0,100,0.00,40.00,0,-999,0,0.00
2013-6-3,75,70,67,-100,-100,-100,0,0,100,0.00,40.00,0,-999,0,0.00
2013-6-4,74,65,56,-100,-100,-100,0,0,100,0.00,40.00,0,-999,0,0.00
2013-6-5,74,62,48,-100,-100,-100,0,0,100,0.00,40.00,0,-999,0,0.00
2013-6-6,71,64,52,-100,-100,-100,0,0,100,0.00,40.00,0,-999,0,0.00
2013-6-7,70,66,63,-100,-100,-100,0,0,100,0.00,40.00,0,-999,0,0.00
2013-6-8,75,69,61,-100,-100,-100,0,0,100,0.00,40.00,0,-999,0,0.00
2013-6-9,80,71,62,-100,-100,-100,0,0,100,0.00,40.00,0,-999,0,0.00
2013-6-10,70,68,63,-100,-100,-100,0,0,100,0.00,40.00,0,-999,0,0.00
2013-6-11,81,75,69,-100,-100,-100,0,0,100,0.00,40.00,0,-999,0,0.00
2013-6-12,82,73,65,-100,-100,-100,0,0,100,0.00,40.00,0,-999,0,0.00
2013-6-13,76,69,64,-100,-100,-100,0,0,100,0.00,40.00,0,-999,0,0.00
2013-6-14,70,61,55,-100,-100,-100,0,0,100,0.00,40.00,0,-999,0,0.00
2013-6-15,80,68,57,-100,-100,-100,0,0,100,0.00,40.00,0,-999,0,0.00
2013-6-16,83,70,59,-100,-100,-100,0,0,100,0.00,40.00,0,-999,0,0.00
2013-6-17,85,74,64,-100,-100,-100,0,0,100,0.00,40.00,0,-999,0,0.00
2013-6-18,77,68,64,-100,-100,-100,0,0,100,0.00,40.00,0,-999,0,0.00
2013-6-19,73,67,59,-100,-100,-100,0,0,100,0.00,40.00,0,-999,0,0.00
2013-6-20,76,65,53,-100,-100,-100,0,0,100,0.00,40.00,0,-999,0,0.00
2013-6-22,79,74,67,-100,-100,-100,0,0,100,0.00,40.00,0,-999,0,0.00
2013-6-23,83,72,58,-100,-100,-100,0,0,100,0.00,40.00,0,-999,0,0.00
2013-6-24,91,78,71,-100,-100,-100,0,0,100,0.00,40.00,0,-999,0,0.00
2013-6-25,90,77,67,-100,-100,-100,0,0,100,0.00,40.00,0,-999,0,0.00
2013-6-26,87,79,69,-100,-100,-100,0,0,100,0.00,40.00,0,-999,0,0.00
2013-6-27,85,77,70,-100,-100,-100,0,0,100,0.00,40.00,0,-999,0,0.00
2013-6-28,85,76,69,-100,-100,-100,0,0,100,0.00,40.00,0,-999,0,0.00
2013-6-29,81,74,67,-100,-100,-100,0,0,100,0.00,40.00,0,-999,0,0.00
2013-6-30,80,74,70,-100,-100,-100,0,0,100,0.00,40.00,0,-999,0,0.00
2013-7-1,79,74,73,-100,-100,-100,0,0,100,0.00,40.00,0,-999,0,0.00
2013-7-2,81,76,73,-100,-100,-100,0,0,100,0.00,40.00,0,-999,0,0.00
2013-7-3,83,77,71,-100,-100,-100,0,0,100,0.00,40.00,0,-999,0,0.00
2013-7-4,87,79,72,-100,-100,-100,0,0,100,0.00,40.00,0,-999,0,0.00
2013-7-5,89,80,72,-100,-100,-100,0,0,100,0.00,40.00,0,-999,0,0.00
2013-7-6,92,80,74,-100,-100,-100,0,0,100,0.00,40.00,0,-999,0,0.00
2013-7-7,92,82,74,-100,-100,-100,0,0,100,0.00,40.00,0,-999,0,0.00
2013-7-8,87,75,71,-100,-100,-100,0,0,100,0.00,40.00,0,-999,0,0.00
2013-7-9,86,77,70,-100,-100,-100,0,0,100,0.00,40.00,0,-999,0,0.00
2013-7-10,85,77,71,-100,-100,-100,0,0,100,0.00,40.00,0,-999,0,0.00
2013-7-11,82,76,73,-100,-100,-100,0,0,100,0.00,40.00,0,-999,0,0.00
2013-7-12,74,72,70,-100,-100,-100,0,0,100,0.00,40.00,0,-999,0,0.00
2013-7-13,84,77,70,-100,-100,-100,0,0,100,0.00,40.00,0,-999,0,0.00
2013-7-14,87,80,73,-100,-100,-100,0,0,100,0.00,40.00,0,-999,0,0.00
2013-7-15,93,81,73,-100,-100,-100,0,0,100,0.00,40.00,0,-999,0,0.00
2013-7-16,92,82,74,-100,-100,-100,0,0,100,0.00,40.00,0,-999,0,0.00
2013-7-17,93,80,72,-100,-100,-100,0,0,100,0.00,40.00,0,-999,0,0.00
2013-7-18,95,88,82,-100,-100,-100,0,0,100,0.00,40.00,0,-999,0,0.00
2013-7-19,95,86,79,-100,-100,-100,0,0,100,0.00,40.00,0,-999,0,0.00
2013-7-20,92,84,73,-100,-100,-100,0,0,100,0.00,40.00,0,-999,0,0.00
2013-7-21,86,77,72,-100,-100,-100,0,0,100,0.00,40.00,0,-999,0,0.00
2013-7-22,86,78,72,-100,-100,-100,0,0,100,0.00,40.00,0,-999,0,0.00
2013-7-23,84,79,76,-100,-100,-100,0,0,100,0.00,40.00,0,-999,0,0.00
2013-7-24,85,77,71,-100,-100,-100,0,0,100,0.00,40.00,0,-999,0,0.00
2013-7-25,72,67,64,-100,-100,-100,0,0,100,0.00,40.00,0,-999,0,0.00
2013-7-26,78,70,64,-100,-100,-100,0,0,100,0.00,40.00,0,-999,0,0.00
2013-7-27,81,72,61,-100,-100,-100,0,0,100,0.00,40.00,0,-999,0,0.00
2013-7-28,79,72,62,-100,-100,-100,0,0,100,0.00,40.00,0,-999,0,0.00
2013-7-29,84,72,66,-100,-100,-100,0,0,100,0.00,40.00,0,-999,0,0.00
2013-7-30,79,68,58,-100,-100,-100,0,0,100,0.00,40.00,0,-999,0,0.00
2013-7-31,81,71,60,-100,-100,-100,0,0,100,0.00,40.00,0,-999,0,0.00
2013-8-1,76,71,69,-100,-100,-100,0,0,100,0.00,40.00,0,-999,0,0.00
2013-8-2,84,75,69,-100,-100,-100,0,0,100,0.00,40.00,0,-999,0,0.00
2013-8-3,76,72,67,-100,-100,-100,0,0,100,0.00,40.00,0,-999,0,0.00
2013-8-4,79,70,61,-100,-100,-100,0,0,100,0.00,40.00,0,-999,0,0.00
2013-8-5,76,66,56,-100,-100,-100,0,0,100,0.00,40.00,0,-999,0,0.00
2013-8-6,78,68,56,-100,-100,-100,0,0,100,0.00,40.00,0,-999,0,0.00
2013-8-7,77,72,68,-100,-100,-100,0,0,100,0.00,40.00,0,-999,0,0.00
2013-8-8,83,76,72,-100,-100,-100,0,0,100,0.00,40.00,0,-999,0,0.00
2013-8-9,88,79,75,-100,-100,-100,0,0,100,0.00,40.00,0,-999,0,0.00
2013-8-10,81,77,72,-100,-100,-100,0,0,100,0.00,40.00,0,-999,0,0.00
2013-8-11,80,72,63,-100,-100,-100,0,0,100,0.00,40.00,0,-999,0,0.00
2013-8-12,83,74,65,-100,-100,-100,0,0,100,0.00,40.00,0,-999,0,0.00
2013-8-13,80,73,69,-100,-100,-100,0,0,100,0.00,40.00,0,-999,0,0.00
2013-8-14,73,68,60,-100,-100,-100,0,0,100,0.00,40.00,0,-999,0,0.00
2013-8-15,74,63,53,-100,-100,-100,0,0,100,0.00,40.00,0,-999,0,0.00
2013-8-16,77,67,53,-100,-100,-100,0,0,100,0.00,40.00,0,-999,0,0.00
2013-8-17,78,67,55,-100,-100,-100,0,0,100,0.00,40.00,0,-999,0,0.00
2013-8-18,74,68,61,-100,-100,-100,0,0,100,0.00,40.00,0,-999,0,0.00
2013-8-19,75,68,60,-100,-100,-100,0,0,100,0.00,40.00,0,-999,0,0.00
2013-8-20,83,73,63,-100,-100,-100,0,0,100,0.00,40.00,0,-999,0,0.00
2013-8-21,85,76,64,-100,-100,-100,0,0,100,0.00,40.00,0,-999,0,0.00
2013-8-22,82,75,69,-100,-100,-100,0,0,100,0.00,40.00,0,-999,0,0.00
2013-8-23,77,72,66,-100,-100,-100,0,0,100,0.00,40.00,0,-999,0,0.00
2013-8-24,74,68,59,-100,-100,-100,0,0,100,0.00,40.00,0,-999,0,0.00
2013-8-25,79,67,52,-100,-100,-100,0,0,100,0.00,40.00,0,-999,0,0.00
2013-8-26,82,71,60,-100,-100,-100,0,0,100,0.00,40.00,0,-999,0,0.00
2013-8-27,84,76,71,-100,-100,-100,0,0,100,0.00,40.00,0,-999,0,0.00
2013-8-28,76,74,71,-100,-100,-100,0,0,100,0.00,40.00,0,-999,0,0.00
2013-8-29,75,72,67,-100,-100,-100,0,0,100,0.00,40.00,0,-999,0,0.00
2013-8-30,80,72,65,-100,-100,-100,0,0,100,0.00,40.00,0,-999,0,0.00
2013-8-31,85,76,68,-100,-100,-100,0,0,100,0.00,40.00,0,-999,0,0.00
2013-9-1,85,78,74,-100,-100,-100,0,0,100,0.00,40.00,0,-999,0,0.00
2013-9-2,79,75,72,-100,-100,-100,0,0,100,0.00,40.00,0,-999,0,0.00
2013-9-3,83,74,66,-100,-100,-100,0,0,100,0.00,40.00,0,-999,0,0.00
2013-9-4,80,69,59,-100,-100,-100,0,0,100,0.00,40.00,0,-999,0,0.00
2013-9-5,78,68,61,-100,-100,-100,0,0,100,0.00,40.00,0,-999,0,0.00
2013-9-6,70,61,51,-100,-100,-100,0,0,100,0.00,40.00,0,-999,0,0.00
2013-9-7,76,63,46,-100,-100,-100,0,0,100,0.00,40.00,0,-999,0,0.00
2013-9-8,81,72,61,-100,-100,-100,0,0,100,0.00,40.00,0,-999,0,0.00
2013-9-9,74,68,56,-100,-100,-100,0,0,100,0.00,40.00,0,-999,0,0.00
2013-9-10,83,75,67,-100,-100,-100,0,0,100,0.00,40.00,0,-999,0,0.00
2013-9-11,89,79,71,-100,-100,-100,0,0,100,0.00,40.00,0,-999,0,0.00
2013-9-12,85,77,71,-100,-100,-100,0,0,100,0.00,40.00,0,-999,0,0.00
2013-9-13,76,70,59,-100,-100,-100,0,0,100,0.00,40.00,0,-999,0,0.00
2013-9-14,66,58,50,-100,-100,-100,0,0,100,0.00,40.00,0,-999,0,0.00
2013-9-15,71,56,43,-100,-100,-100,0,0,100,0.00,40.00,0,-999,0,0.00
2013-9-16,68,63,59,-100,-100,-100,0,0,100,0.00,40.00,0,-999,0,0.00
2013-9-17,61,55,45,-100,-100,-100,0,0,100,0.00,40.00,0,-999,0,0.00
2013-9-18,50,42,41,-100,-100,-100,0,0,100,0.00,40.00,0,-999,0,0.00
2013-9-19,72,58,42,-100,-100,-100,0,0,100,0.00,40.00,0,-999,0,0.00
2013-9-20,75,63,45,-100,-100,-100,0,0,100,0.00,40.00,0,-999,0,0.00
2013-9-21,76,66,49,-100,-100,-100,0,0,100,0.00,40.00,0,-999,0,0.00
2013-9-22,70,65,54,-100,-100,-100,0,0,100,0.00,40.00,0,-999,0,0.00
2013-9-23,65,55,44,-100,-100,-100,0,0,100,0.00,40.00,0,-999,0,0.00
2013-9-24,69,54,42,-100,-100,-100,0,0,100,0.00,40.00,0,-999,0,0.00
2013-9-25,71,58,44,-100,-100,-100,0,0,100,0.00,40.00,0,-999,0,0.00
2013-9-26,71,58,47,-100,-100,-100,0,0,100,0.00,40.00,0,-999,0,0.00
2013-9-27,67,60,52,-100,-100,-100,0,0,100,0.00,40.00,0,-999,0,0.00
2013-9-28,69,62,54,-100,-100,-100,0,0,100,0.00,40.00,0,-999,0,0.00
2013-9-29,68,59,49,-100,-100,-100,0,0,100,0.00,40.00,0,-999,0,0.00
2013-9-30,70,59,47,-100,-100,-100,0,0,100,0.00,40.00,0,-999,0,0.00
2013-10-1,72,65,61,-100,-100,-100,0,0,100,0.00,40.00,0,-999,0,0.00
2013-10-2,83,69,55,-100,-100,-100,0,0,100,0.00,40.00,0,-999,0,0.00
2013-10-3,77,67,57,-100,-100,-100,0,0,100,0.00,40.00,0,-999,0,0.00
2013-10-4,83,72,56,-100,-100,-100,0,0,100,0.00,40.00,0,-999,0,0.00
2013-10-5,71,67,62,-100,-100,-100,0,0,100,0.00,40.00,0,-999,0,0.00
2013-10-6,78,70,66,-100,-100,-100,0,0,100,0.00,40.00,0,-999,0,0.00
2013-10-7,77,69,61,-100,-100,-100,0,0,100,0.00,40.00,0,-999,0,0.00
2013-10-8,65,57,49,-100,-100,-100,0,0,100,0.00,40.00,0,-999,0,0.00
2013-10-9,62,60,54,-100,-100,-100,0,0,100,0.00,40.00,0,-999,0,0.00
2013-10-10,63,61,58,-100,-100,-100,0,0,100,0.00,40.00,0,-999,0,0.00
2013-10-11,63,63,62,-100,-100,-100,0,0,100,0.00,40.00,0,-999,0,0.00
2013-10-12,66,63,61,-100,-100,-100,0,0,100,0.00,40.00,0,-999,0,0.00
2013-10-13,63,61,58,-100,-100,-100,0,0,100,0.00,40.00,0,-999,0,0.00
2013-10-14,63,57,47,-100,-100,-100,0,0,100,0.00,40.00,0,-999,0,0.00
2013-10-15,67,57,44,-100,-100,-100,0,0,100,0.00,40.00,0,-999,0,0.00
2013-10-16,66,61,54,-100,-100,-100,0,0,100,0.00,40.00,0,-999,0,0.00
2013-10-17,73,65,61,-100,-100,-100,0,0,100,0.00,40.00,0,-999,0,0.00
2013-10-18,66,60,50,-100,-100,-100,0,0,100,0.00,40.00,0,-999,0,0.00
2013-10-19,62,52,41,-100,-100,-100,0,0,100,0.00,40.00,0,-999,0,0.00
2013-10-20,61,53,42,-100,-100,-100,0,0,100,0.00,40.00,0,-999,0,0.00
2013-10-21,65,51,36,-100,-100,-100,0,0,100,0.00,40.00,0,-999,0,0.00
2013-10-22,69,58,43,-100,-100,-100,0,0,100,0.00,40.00,0,-999,0,0.00
2013-10-23,51,47,41,-100,-100,-100,0,0,100,0.00,40.00,0,-999,0,0.00
2013-10-24,51,42,36,-100,-100,-100,0,0,100,0.00,40.00,0,-999,0,0.00
2013-10-25,53,42,32,-100,-100,-100,0,0,100,0.00,40.00,0,-999,0,0.00
2013-10-26,56,44,32,-100,-100,-100,0,0,100,0.00,40.00,0,-999,0,0.00
2013-10-27,57,49,37,-100,-100,-100,0,0,100,0.00,40.00,0,-999,0,0.00
2013-10-28,62,45,31,-100,-100,-100,0,0,100,0.00,40.00,0,-999,0,0.00
2013-10-29,58,49,40,-100,-100,-100,0,0,100,0.00,40.00,0,-999,0,0.00
2013-10-30,58,52,41,-100,-100,-100,0,0,100,0.00,40.00,0,-999,0,0.00
2013-10-31,65,60,47,-100,-100,-100,0,0,100,0.00,40.00,0,-999,0,0.00
2013-11-1,68,63,60,-100,-100,-100,0,0,100,0.00,40.00,0,-999,0,0.00
2013-11-2,68,61,53,-100,-100,-100,0,0,100,0.00,40.00,0,-999,0,0.00
2013-11-3,52,46,35,-100,-100,-100,0,0,100,0.00,40.00,0,-999,0,0.00
2013-11-4,46,38,30,-100,-100,-100,0,0,100,0.00,40.00,0,-999,0,0.00
2013-11-5,57,48,36,-100,-100,-100,0,0,100,0.00,40.00,0,-999,0,0.00
2013-11-6,62,53,33,-100,-100,-100,0,0,100,0.00,40.00,0,-999,0,0.00
2013-11-7,62,56,39,-100,-100,-100,0,0,100,0.00,40.00,0,-999,0,0.00
2013-11-8,49,42,34,-100,-100,-100,0,0,100,0.00,40.00,0,-999,0,0.00
2013-11-9,51,42,29,-100,-100,-100,0,0,100,0.00,40.00,0,-999,0,0.00
2013-11-10,61,51,45,-100,-100,-100,0,0,100,0.00,40.00,0,-999,0,0.00
2013-11-11,55,47,36,-100,-100,-100,0,0,100,0.00,40.00,0,-999,0,0.00
2013-11-12,51,40,31,-100,-100,-100,0,0,100,0.00,40.00,0,-999,0,0.00
2013-11-13,39,31,23,-100,-100,-100,0,0,100,0.00,40.00,0,-999,0,0.00
2013-11-14,55,40,29,-100,-100,-100,0,0,100,0.00,40.00,0,-999,0,0.00
2013-11-15,57,47,31,-100,-100,-100,0,0,100,0.00,40.00,0,-999,0,0.00
2013-11-16,51,44,35,-100,-100,-100,0,0,100,0.00,40.00,0,-999,0,0.00
2013-11-17,64,55,47,-100,-100,-100,0,0,100,0.00,40.00,0,-999,0,0.00
2013-11-18,66,59,49,-100,-100,-100,0,0,100,0.00,40.00,0,-999,0,0.00
2013-11-19,51,43,32,-100,-100,-100,0,0,100,0.00,40.00,0,-999,0,0.00
2013-11-20,44,34,27,-100,-100,-100,0,0,100,0.00,40.00,0,-999,0,0.00
2013-11-21,53,44,33,-100,-100,-100,0,0,100,0.00,40.00,0,-999,0,0.00
2013-11-22,59,52,44,-100,-100,-100,0,0,100,0.00,40.00,0,-999,0,0.00
2013-11-23,54,44,35,-100,-100,-100,0,0,100,0.00,40.00,0,-999,0,0.00
2013-11-24,31,26,20,-100,-100,-100,0,0,100,0.00,40.00,0,-999,0,0.00
2013-11-25,34,26,18,-100,-100,-100,0,0,100,0.00,40.00,0,-999,0,0.00
2013-11-26,53,40,31,-100,-100,-100,0,0,100,0.00,40.00,0,-999,0,0.00
2013-11-27,62,48,35,-100,-100,-100,0,0,100,0.00,40.00,0,-999,0,0.00
2013-11-28,36,31,25,-100,-100,-100,0,0,100,0.00,40.00,0,-999,0,0.00
2013-11-29,40,31,23,-100,-100,-100,0,0,100,0.00,40.00,0,-999,0,0.00
2013-11-30,40,33,25,-100,-100,-100,0,0,100,0.00,40.00,0,-999,0,0.00
2013-12-1,51,39,30,-100,-100,-100,0,0,100,0.00,40.00,0,-999,0,0.00
2013-12-2,51,37,29,-100,-100,-100,0,0,100,0.00,40.00,0,-999,0,0.00
2013-12-3,53,40,29,-100,-100,-100,0,0,100,0.00,40.00,0,-999,0,0.00
2013-12-4,55,44,32,-100,-100,-100,0,0,100,0.00,40.00,0,-999,0,0.00
2013-12-5,59,54,51,-100,-100,-100,0,0,100,0.00,40.00,0,-999,0,0.00
2013-12-6,57,50,40,-100,-100,-100,0,0,100,0.00,40.00,0,-999,0,0.00
2013-12-7,41,37,31,-100,-100,-100,0,0,100,0.00,40.00,0,-999,0,0.00
2013-12-8,38,30,26,-100,-100,-100,0,0,100,0.00,40.00,0,-999,0,0.00
2013-12-9,46,40,35,-100,-100,-100,0,0,100,0.00,40.00,0,-999,0,0.00
2013-12-10,35,32,27,-100,-100,-100,0,0,100,0.00,40.00,0,-999,0,0.00
2013-12-11,34,26,18,-100,-100,-100,0,0,100,0.00,40.00,0,-999,0,0.00
2013-12-12,27,22,18,-100,-100,-100,0,0,100,0.00,40.00,0,-999,0,0.00
2013-12-13,38,28,18,-100,-100,-100,0,0,100,0.00,40.00,0,-999,0,0.00
2013-12-14,48,36,24,-100,-100,-100,0,0,100,0.00,40.00,0,-999,0,0.00
2013-12-15,55,40,32,-100,-100,-100,0,0,100,0.00,40.00,0,-999,0,0.00
2013-12-16,34,28,20,-100,-100,-100,0,0,100,0.00,40.00,0,-999,0,0.00
2013-12-17,45,33,23,-100,-100,-100,0,0,100,0.00,40.00,0,-999,0,0.00
2013-12-18,38,30,24,-100,-100,-100,0,0,100,0.00,40.00,0,-999,0,0.00
2013-12-19,54,39,21,-100,-100,-100,0,0,100,0.00,40.00,0,-999,0,0.00
2013-12-20,56,47,36,-100,-100,-100,0,0,100,0.00,40.00,0,-999,0,0.00
2013-12-21,62,54,45,-100,-100,-100,0,0,100,0.00,40.00,0,-999,0,0.00
2013-12-22,70,59,55,-100,-100,-100,0,0,100,0.00,40.00,0,-999,0,0.00
2013-12-23,62,56,44,-100,-100,-100,0,0,100,0.00,40.00,0,-999,0,0.00
2013-12-24,43,37,29,-100,-100,-100,0,0,100,0.00,40.00,0,-999,0,0.00
2013-12-25,31,25,20,-100,-100,-100,0,0,100,0.00,40.00,0,-999,0,0.00
2013-12-26,42,29,19,-100,-100,-100,0,0,100,0.00,40.00,0,-999,0,0.00
2013-12-27,46,30,20,-100,-100,-100,0,0,100,0.00,40.00,0,-999,0,0.00
2013-12-28,56,40,22,-100,-100,-100,0,0,100,0.00,40.00,0,-999,0,0.00
2013-12-29,57,45,39,-100,-100,-100,0,0,100,0.00,40.00,0,-999,0,0.00
2013-12-30,46,40,29,-100,-100,-100,0,0,100,0.00,40.00,0,-999,0,0.00
2013-12-31,39,30,24,-100,-100,-100,0,0,100,0.00,40.00,0,-999,0,0.00
2014-1-1,42,30,19,-100,-100,-100,0,0,100,0.00,40.00,0,-999,0,0.00
2014-1-2,39,34,28,-100,-100,-100,0,0,100,0.00,40.00,0,-999,0,0.00